sensor_id;sensor_type;location;lat;lon;timestamp;P1;durP1;ratioP1;P2;durP2;ratioP2
1010;SDS011;494;48.744;10.106;2022-12-11T00:00:40;35.15;;;17.25;;
1010;SDS011;494;48.744;10.106;2022-12-11T00:03:11;35.10;;;16.88;;
1010;SDS011;494;48.744;10.106;2022-12-11T00:05:42;35.90;;;17.10;;
1010;SDS011;494;48.744;10.106;2022-12-11T00:08:12;37.67;;;17.40;;
1010;SDS011;494;48.744;10.106;2022-12-11T00:10:45;34.72;;;17.52;;
1010;SDS011;494;48.744;10.106;2022-12-11T00:13:16;34.53;;;16.58;;
1010;SDS011;494;48.744;10.106;2022-12-11T00:15:44;34.13;;;16.27;;
1010;SDS011;494;48.744;10.106;2022-12-11T00:18:15;35.60;;;17.58;;
1010;SDS011;494;48.744;10.106;2022-12-11T00:20:44;36.50;;;17.80;;
1010;SDS011;494;48.744;10.106;2022-12-11T00:23:12;35.70;;;17.50;;
1010;SDS011;494;48.744;10.106;2022-12-11T00:25:41;34.80;;;17.23;;
1010;SDS011;494;48.744;10.106;2022-12-11T00:28:13;32.95;;;16.65;;
1010;SDS011;494;48.744;10.106;2022-12-11T00:30:44;31.70;;;16.63;;
1010;SDS011;494;48.744;10.106;2022-12-11T00:33:15;34.65;;;17.15;;
1010;SDS011;494;48.744;10.106;2022-12-11T00:35:46;39.50;;;17.90;;
1010;SDS011;494;48.744;10.106;2022-12-11T00:38:15;35.22;;;17.23;;
1010;SDS011;494;48.744;10.106;2022-12-11T00:40:48;37.15;;;17.23;;
1010;SDS011;494;48.744;10.106;2022-12-11T00:43:17;33.53;;;17.13;;
1010;SDS011;494;48.744;10.106;2022-12-11T00:45:45;41.20;;;17.05;;
1010;SDS011;494;48.744;10.106;2022-12-11T00:48:16;31.73;;;15.25;;
1010;SDS011;494;48.744;10.106;2022-12-11T00:50:45;33.90;;;16.75;;
1010;SDS011;494;48.744;10.106;2022-12-11T00:53:14;31.42;;;15.13;;
1010;SDS011;494;48.744;10.106;2022-12-11T00:55:43;32.40;;;15.50;;
1010;SDS011;494;48.744;10.106;2022-12-11T00:58:12;34.83;;;16.48;;
1010;SDS011;494;48.744;10.106;2022-12-11T01:00:41;34.75;;;16.00;;
1010;SDS011;494;48.744;10.106;2022-12-11T01:03:12;31.50;;;15.02;;
1010;SDS011;494;48.744;10.106;2022-12-11T01:05:50;34.60;;;16.55;;
1010;SDS011;494;48.744;10.106;2022-12-11T01:08:20;34.65;;;16.67;;
1010;SDS011;494;48.744;10.106;2022-12-11T01:10:49;37.38;;;17.58;;
1010;SDS011;494;48.744;10.106;2022-12-11T01:13:17;36.97;;;17.67;;
1010;SDS011;494;48.744;10.106;2022-12-11T01:15:46;35.38;;;17.00;;
1010;SDS011;494;48.744;10.106;2022-12-11T01:18:15;30.25;;;15.15;;
1010;SDS011;494;48.744;10.106;2022-12-11T01:20:44;33.05;;;15.63;;
1010;SDS011;494;48.744;10.106;2022-12-11T01:23:14;34.78;;;15.43;;
1010;SDS011;494;48.744;10.106;2022-12-11T01:25:43;32.83;;;15.93;;
1010;SDS011;494;48.744;10.106;2022-12-11T01:28:12;29.40;;;14.25;;
1010;SDS011;494;48.744;10.106;2022-12-11T01:30:41;33.05;;;15.18;;
1010;SDS011;494;48.744;10.106;2022-12-11T01:33:10;34.33;;;15.63;;
1010;SDS011;494;48.744;10.106;2022-12-11T01:35:39;35.42;;;16.60;;
1010;SDS011;494;48.744;10.106;2022-12-11T01:38:08;36.40;;;16.42;;
1010;SDS011;494;48.744;10.106;2022-12-11T01:40:43;33.63;;;15.32;;
1010;SDS011;494;48.744;10.106;2022-12-11T01:43:20;35.40;;;16.67;;
1010;SDS011;494;48.744;10.106;2022-12-11T01:45:52;31.80;;;14.98;;
1010;SDS011;494;48.744;10.106;2022-12-11T01:48:22;30.35;;;14.95;;
1010;SDS011;494;48.744;10.106;2022-12-11T01:50:56;32.03;;;16.08;;
1010;SDS011;494;48.744;10.106;2022-12-11T01:53:30;33.92;;;14.77;;
1010;SDS011;494;48.744;10.106;2022-12-11T01:56:05;31.10;;;13.98;;
1010;SDS011;494;48.744;10.106;2022-12-11T01:58:37;29.90;;;13.65;;
1010;SDS011;494;48.744;10.106;2022-12-11T02:01:15;33.33;;;14.43;;
1010;SDS011;494;48.744;10.106;2022-12-11T02:03:58;27.80;;;13.13;;
1010;SDS011;494;48.744;10.106;2022-12-11T02:06:29;28.90;;;13.73;;
1010;SDS011;494;48.744;10.106;2022-12-11T02:09:02;26.55;;;12.40;;
1010;SDS011;494;48.744;10.106;2022-12-11T02:11:37;23.63;;;11.57;;
1010;SDS011;494;48.744;10.106;2022-12-11T02:14:24;24.63;;;11.30;;
1010;SDS011;494;48.744;10.106;2022-12-11T02:17:05;25.17;;;10.73;;
1010;SDS011;494;48.744;10.106;2022-12-11T02:19:53;24.13;;;10.60;;
1010;SDS011;494;48.744;10.106;2022-12-11T02:22:36;25.13;;;10.95;;
1010;SDS011;494;48.744;10.106;2022-12-11T02:25:46;21.95;;;10.10;;
1010;SDS011;494;48.744;10.106;2022-12-11T02:28:32;24.27;;;11.10;;
1010;SDS011;494;48.744;10.106;2022-12-11T02:31:08;22.20;;;10.70;;
1010;SDS011;494;48.744;10.106;2022-12-11T02:33:42;23.45;;;10.75;;
1010;SDS011;494;48.744;10.106;2022-12-11T02:36:20;23.30;;;10.75;;
1010;SDS011;494;48.744;10.106;2022-12-11T02:38:53;24.65;;;10.60;;
1010;SDS011;494;48.744;10.106;2022-12-11T02:41:24;22.85;;;10.27;;
1010;SDS011;494;48.744;10.106;2022-12-11T02:43:57;20.08;;;9.30;;
1010;SDS011;494;48.744;10.106;2022-12-11T02:46:29;19.67;;;9.38;;
1010;SDS011;494;48.744;10.106;2022-12-11T02:49:01;19.13;;;9.35;;
1010;SDS011;494;48.744;10.106;2022-12-11T02:51:35;21.95;;;10.05;;
1010;SDS011;494;48.744;10.106;2022-12-11T02:54:08;21.38;;;9.90;;
1010;SDS011;494;48.744;10.106;2022-12-11T02:56:46;20.60;;;9.35;;
1010;SDS011;494;48.744;10.106;2022-12-11T02:59:23;18.45;;;8.43;;
1010;SDS011;494;48.744;10.106;2022-12-11T03:01:57;22.02;;;10.80;;
1010;SDS011;494;48.744;10.106;2022-12-11T03:04:25;21.23;;;9.65;;
1010;SDS011;494;48.744;10.106;2022-12-11T03:06:57;22.98;;;10.07;;
1010;SDS011;494;48.744;10.106;2022-12-11T03:09:37;20.90;;;10.30;;
1010;SDS011;494;48.744;10.106;2022-12-11T03:12:07;19.85;;;10.07;;
1010;SDS011;494;48.744;10.106;2022-12-11T03:14:41;21.40;;;10.20;;
1010;SDS011;494;48.744;10.106;2022-12-11T03:17:12;23.85;;;11.98;;
1010;SDS011;494;48.744;10.106;2022-12-11T03:19:46;23.73;;;10.77;;
1010;SDS011;494;48.744;10.106;2022-12-11T03:22:24;24.70;;;11.85;;
1010;SDS011;494;48.744;10.106;2022-12-11T03:25:05;25.02;;;11.52;;
1010;SDS011;494;48.744;10.106;2022-12-11T03:27:44;26.42;;;11.85;;
1010;SDS011;494;48.744;10.106;2022-12-11T03:30:24;24.45;;;11.73;;
1010;SDS011;494;48.744;10.106;2022-12-11T03:32:59;23.10;;;11.65;;
1010;SDS011;494;48.744;10.106;2022-12-11T03:35:36;25.70;;;11.60;;
1010;SDS011;494;48.744;10.106;2022-12-11T03:38:10;26.85;;;12.38;;
1010;SDS011;494;48.744;10.106;2022-12-11T03:40:45;28.42;;;13.23;;
1010;SDS011;494;48.744;10.106;2022-12-11T03:43:20;29.85;;;14.00;;
1010;SDS011;494;48.744;10.106;2022-12-11T03:45:51;26.90;;;13.02;;
1010;SDS011;494;48.744;10.106;2022-12-11T03:48:22;25.83;;;12.70;;
1010;SDS011;494;48.744;10.106;2022-12-11T03:50:57;24.20;;;12.10;;
1010;SDS011;494;48.744;10.106;2022-12-11T03:53:28;32.35;;;14.05;;
1010;SDS011;494;48.744;10.106;2022-12-11T03:55:59;26.75;;;12.50;;
1010;SDS011;494;48.744;10.106;2022-12-11T03:58:30;25.33;;;12.43;;
1010;SDS011;494;48.744;10.106;2022-12-11T04:01:01;28.40;;;13.02;;
1010;SDS011;494;48.744;10.106;2022-12-11T04:03:30;26.15;;;12.80;;
1010;SDS011;494;48.744;10.106;2022-12-11T04:05:58;29.48;;;13.98;;
1010;SDS011;494;48.744;10.106;2022-12-11T04:08:27;25.80;;;13.05;;
1010;SDS011;494;48.744;10.106;2022-12-11T04:10:56;28.58;;;13.32;;
1010;SDS011;494;48.744;10.106;2022-12-11T04:13:38;27.20;;;13.23;;
1010;SDS011;494;48.744;10.106;2022-12-11T04:16:10;27.20;;;12.27;;
1010;SDS011;494;48.744;10.106;2022-12-11T04:18:37;27.98;;;12.70;;
1010;SDS011;494;48.744;10.106;2022-12-11T04:21:35;26.70;;;13.10;;
1010;SDS011;494;48.744;10.106;2022-12-11T04:24:21;30.80;;;14.02;;
1010;SDS011;494;48.744;10.106;2022-12-11T04:26:50;25.17;;;12.10;;
1010;SDS011;494;48.744;10.106;2022-12-11T04:29:18;22.85;;;9.90;;
1010;SDS011;494;48.744;10.106;2022-12-11T04:31:48;22.10;;;10.27;;
1010;SDS011;494;48.744;10.106;2022-12-11T04:34:17;23.27;;;10.95;;
1010;SDS011;494;48.744;10.106;2022-12-11T04:36:46;21.75;;;10.90;;
1010;SDS011;494;48.744;10.106;2022-12-11T04:39:15;24.35;;;10.65;;
1010;SDS011;494;48.744;10.106;2022-12-11T04:41:43;23.23;;;10.00;;
1010;SDS011;494;48.744;10.106;2022-12-11T04:44:12;22.58;;;9.75;;
1010;SDS011;494;48.744;10.106;2022-12-11T04:46:41;22.70;;;10.55;;
1010;SDS011;494;48.744;10.106;2022-12-11T04:49:12;23.00;;;10.25;;
1010;SDS011;494;48.744;10.106;2022-12-11T04:51:42;24.05;;;10.25;;
1010;SDS011;494;48.744;10.106;2022-12-11T04:54:11;21.67;;;9.90;;
1010;SDS011;494;48.744;10.106;2022-12-11T04:56:39;23.00;;;9.73;;
1010;SDS011;494;48.744;10.106;2022-12-11T04:59:08;22.02;;;10.90;;
1010;SDS011;494;48.744;10.106;2022-12-11T05:01:37;21.42;;;9.75;;
1010;SDS011;494;48.744;10.106;2022-12-11T05:04:06;21.98;;;9.43;;
1010;SDS011;494;48.744;10.106;2022-12-11T05:06:36;19.83;;;9.85;;
1010;SDS011;494;48.744;10.106;2022-12-11T05:09:05;21.35;;;10.75;;
1010;SDS011;494;48.744;10.106;2022-12-11T05:11:37;25.00;;;12.30;;
1010;SDS011;494;48.744;10.106;2022-12-11T05:14:06;27.30;;;13.40;;
1010;SDS011;494;48.744;10.106;2022-12-11T05:16:35;28.25;;;13.77;;
1010;SDS011;494;48.744;10.106;2022-12-11T05:19:04;26.10;;;12.70;;
1010;SDS011;494;48.744;10.106;2022-12-11T05:21:32;24.88;;;12.32;;
1010;SDS011;494;48.744;10.106;2022-12-11T05:24:03;24.65;;;12.35;;
1010;SDS011;494;48.744;10.106;2022-12-11T05:26:32;28.10;;;12.90;;
1010;SDS011;494;48.744;10.106;2022-12-11T05:29:01;24.98;;;11.65;;
1010;SDS011;494;48.744;10.106;2022-12-11T05:31:29;25.77;;;12.63;;
1010;SDS011;494;48.744;10.106;2022-12-11T05:33:59;24.83;;;11.63;;
1010;SDS011;494;48.744;10.106;2022-12-11T05:36:28;23.33;;;11.02;;
1010;SDS011;494;48.744;10.106;2022-12-11T05:39:00;23.33;;;11.55;;
1010;SDS011;494;48.744;10.106;2022-12-11T05:41:32;23.83;;;11.65;;
1010;SDS011;494;48.744;10.106;2022-12-11T05:44:01;25.23;;;11.77;;
1010;SDS011;494;48.744;10.106;2022-12-11T05:46:29;23.85;;;11.52;;
1010;SDS011;494;48.744;10.106;2022-12-11T05:48:58;22.60;;;11.68;;
1010;SDS011;494;48.744;10.106;2022-12-11T05:51:29;23.13;;;11.23;;
1010;SDS011;494;48.744;10.106;2022-12-11T05:53:59;21.90;;;10.50;;
1010;SDS011;494;48.744;10.106;2022-12-11T05:56:31;21.52;;;10.68;;
1010;SDS011;494;48.744;10.106;2022-12-11T05:59:02;20.70;;;9.05;;
1010;SDS011;494;48.744;10.106;2022-12-11T06:01:33;20.90;;;9.52;;
1010;SDS011;494;48.744;10.106;2022-12-11T06:04:04;17.60;;;8.30;;
1010;SDS011;494;48.744;10.106;2022-12-11T06:06:35;21.30;;;9.38;;
1010;SDS011;494;48.744;10.106;2022-12-11T06:09:06;21.40;;;8.80;;
1010;SDS011;494;48.744;10.106;2022-12-11T06:11:36;21.38;;;9.05;;
1010;SDS011;494;48.744;10.106;2022-12-11T06:14:04;19.13;;;8.80;;
1010;SDS011;494;48.744;10.106;2022-12-11T06:16:33;18.20;;;8.55;;
1010;SDS011;494;48.744;10.106;2022-12-11T06:19:02;21.30;;;9.48;;
1010;SDS011;494;48.744;10.106;2022-12-11T06:21:31;20.63;;;9.70;;
1010;SDS011;494;48.744;10.106;2022-12-11T06:24:01;21.75;;;9.60;;
1010;SDS011;494;48.744;10.106;2022-12-11T06:26:31;22.42;;;9.20;;
1010;SDS011;494;48.744;10.106;2022-12-11T06:29:01;19.42;;;9.18;;
1010;SDS011;494;48.744;10.106;2022-12-11T06:31:36;18.10;;;8.88;;
1010;SDS011;494;48.744;10.106;2022-12-11T06:34:05;19.55;;;9.50;;
1010;SDS011;494;48.744;10.106;2022-12-11T06:36:33;21.10;;;10.85;;
1010;SDS011;494;48.744;10.106;2022-12-11T06:39:02;23.45;;;11.80;;
1010;SDS011;494;48.744;10.106;2022-12-11T06:41:31;30.40;;;15.20;;
1010;SDS011;494;48.744;10.106;2022-12-11T06:44:02;29.70;;;16.15;;
1010;SDS011;494;48.744;10.106;2022-12-11T06:46:30;38.38;;;21.13;;
1010;SDS011;494;48.744;10.106;2022-12-11T06:48:59;33.75;;;17.17;;
1010;SDS011;494;48.744;10.106;2022-12-11T06:51:28;29.00;;;15.30;;
1010;SDS011;494;48.744;10.106;2022-12-11T06:53:56;30.92;;;14.90;;
1010;SDS011;494;48.744;10.106;2022-12-11T06:56:25;31.92;;;14.93;;
1010;SDS011;494;48.744;10.106;2022-12-11T06:58:54;24.63;;;12.52;;
1010;SDS011;494;48.744;10.106;2022-12-11T07:01:27;26.75;;;12.73;;
1010;SDS011;494;48.744;10.106;2022-12-11T07:03:57;27.20;;;13.18;;
1010;SDS011;494;48.744;10.106;2022-12-11T07:06:27;27.40;;;12.98;;
1010;SDS011;494;48.744;10.106;2022-12-11T07:08:56;25.13;;;11.80;;
1010;SDS011;494;48.744;10.106;2022-12-11T07:11:25;32.10;;;15.05;;
1010;SDS011;494;48.744;10.106;2022-12-11T07:13:53;40.42;;;20.50;;
1010;SDS011;494;48.744;10.106;2022-12-11T07:16:27;34.13;;;16.50;;
1010;SDS011;494;48.744;10.106;2022-12-11T07:18:55;31.02;;;15.55;;
1010;SDS011;494;48.744;10.106;2022-12-11T07:21:24;31.85;;;16.10;;
1010;SDS011;494;48.744;10.106;2022-12-11T07:23:54;24.85;;;12.63;;
1010;SDS011;494;48.744;10.106;2022-12-11T07:26:23;23.80;;;10.77;;
1010;SDS011;494;48.744;10.106;2022-12-11T07:28:55;26.38;;;11.52;;
1010;SDS011;494;48.744;10.106;2022-12-11T07:31:25;23.25;;;10.93;;
1010;SDS011;494;48.744;10.106;2022-12-11T07:33:57;24.88;;;11.88;;
1010;SDS011;494;48.744;10.106;2022-12-11T07:36:30;24.67;;;11.73;;
1010;SDS011;494;48.744;10.106;2022-12-11T07:39:11;23.17;;;11.55;;
1010;SDS011;494;48.744;10.106;2022-12-11T07:41:40;28.30;;;12.35;;
1010;SDS011;494;48.744;10.106;2022-12-11T07:44:09;27.60;;;12.57;;
1010;SDS011;494;48.744;10.106;2022-12-11T07:46:39;23.67;;;11.35;;
1010;SDS011;494;48.744;10.106;2022-12-11T07:49:08;29.42;;;12.40;;
1010;SDS011;494;48.744;10.106;2022-12-11T08:23:00;26.75;;;12.38;;
1010;SDS011;494;48.744;10.106;2022-12-11T08:25:29;26.42;;;13.00;;
1010;SDS011;494;48.744;10.106;2022-12-11T08:27:58;26.58;;;13.50;;
1010;SDS011;494;48.744;10.106;2022-12-11T08:30:26;25.73;;;12.63;;
1010;SDS011;494;48.744;10.106;2022-12-11T08:32:55;28.45;;;13.55;;
1010;SDS011;494;48.744;10.106;2022-12-11T08:35:25;24.50;;;12.25;;
1010;SDS011;494;48.744;10.106;2022-12-11T08:37:54;24.90;;;11.48;;
1010;SDS011;494;48.744;10.106;2022-12-11T08:40:24;25.58;;;11.27;;
1010;SDS011;494;48.744;10.106;2022-12-11T08:42:52;25.05;;;11.80;;
1010;SDS011;494;48.744;10.106;2022-12-11T08:45:21;22.02;;;9.88;;
1010;SDS011;494;48.744;10.106;2022-12-11T08:47:50;22.92;;;10.73;;
1010;SDS011;494;48.744;10.106;2022-12-11T08:50:19;22.42;;;9.98;;
1010;SDS011;494;48.744;10.106;2022-12-11T08:52:48;21.45;;;10.23;;
1010;SDS011;494;48.744;10.106;2022-12-11T08:55:17;19.05;;;9.02;;
1010;SDS011;494;48.744;10.106;2022-12-11T08:57:47;19.67;;;9.88;;
1010;SDS011;494;48.744;10.106;2022-12-11T09:00:16;21.95;;;10.77;;
1010;SDS011;494;48.744;10.106;2022-12-11T09:02:45;28.55;;;10.13;;
1010;SDS011;494;48.744;10.106;2022-12-11T09:05:15;22.42;;;9.93;;
1010;SDS011;494;48.744;10.106;2022-12-11T09:07:43;24.42;;;11.20;;
1010;SDS011;494;48.744;10.106;2022-12-11T09:10:12;20.65;;;10.35;;
1010;SDS011;494;48.744;10.106;2022-12-11T09:12:41;22.92;;;10.40;;
1010;SDS011;494;48.744;10.106;2022-12-11T09:15:11;23.98;;;10.98;;
1010;SDS011;494;48.744;10.106;2022-12-11T09:17:40;25.15;;;11.23;;
1010;SDS011;494;48.744;10.106;2022-12-11T09:20:09;20.60;;;10.13;;
1010;SDS011;494;48.744;10.106;2022-12-11T09:22:38;31.00;;;13.07;;
1010;SDS011;494;48.744;10.106;2022-12-11T09:25:08;22.67;;;10.32;;
1010;SDS011;494;48.744;10.106;2022-12-11T09:27:37;26.05;;;11.98;;
1010;SDS011;494;48.744;10.106;2022-12-11T09:30:06;24.45;;;11.80;;
1010;SDS011;494;48.744;10.106;2022-12-11T09:32:37;22.90;;;9.48;;
1010;SDS011;494;48.744;10.106;2022-12-11T09:35:07;23.55;;;9.70;;
1010;SDS011;494;48.744;10.106;2022-12-11T09:37:37;21.85;;;10.55;;
1010;SDS011;494;48.744;10.106;2022-12-11T09:40:07;20.38;;;10.18;;
1010;SDS011;494;48.744;10.106;2022-12-11T09:42:43;20.73;;;9.00;;
1010;SDS011;494;48.744;10.106;2022-12-11T09:45:20;19.07;;;8.73;;
1010;SDS011;494;48.744;10.106;2022-12-11T09:47:50;20.77;;;8.73;;
1010;SDS011;494;48.744;10.106;2022-12-11T09:50:23;19.23;;;8.03;;
1010;SDS011;494;48.744;10.106;2022-12-11T09:53:01;18.33;;;8.13;;
1010;SDS011;494;48.744;10.106;2022-12-11T09:55:40;19.73;;;8.17;;
1010;SDS011;494;48.744;10.106;2022-12-11T09:58:23;16.00;;;7.70;;
1010;SDS011;494;48.744;10.106;2022-12-11T10:01:07;19.40;;;8.83;;
1010;SDS011;494;48.744;10.106;2022-12-11T10:03:51;20.03;;;8.80;;
1010;SDS011;494;48.744;10.106;2022-12-11T10:07:00;16.57;;;8.43;;
1010;SDS011;494;48.744;10.106;2022-12-11T10:09:41;18.15;;;8.10;;
1010;SDS011;494;48.744;10.106;2022-12-11T10:12:21;21.50;;;8.75;;
1010;SDS011;494;48.744;10.106;2022-12-11T10:15:10;18.00;;;8.45;;
1010;SDS011;494;48.744;10.106;2022-12-11T10:18:00;18.80;;;7.95;;
1010;SDS011;494;48.744;10.106;2022-12-11T10:20:34;20.92;;;9.10;;
1010;SDS011;494;48.744;10.106;2022-12-11T10:23:07;18.98;;;7.38;;
1010;SDS011;494;48.744;10.106;2022-12-11T10:25:44;22.40;;;8.70;;
1010;SDS011;494;48.744;10.106;2022-12-11T10:28:18;20.20;;;8.88;;
1010;SDS011;494;48.744;10.106;2022-12-11T10:30:49;17.98;;;8.43;;
1010;SDS011;494;48.744;10.106;2022-12-11T10:33:31;20.52;;;8.50;;
1010;SDS011;494;48.744;10.106;2022-12-11T10:36:09;19.70;;;7.88;;
1010;SDS011;494;48.744;10.106;2022-12-11T10:38:46;17.35;;;7.70;;
1010;SDS011;494;48.744;10.106;2022-12-11T10:41:16;20.27;;;8.40;;
1010;SDS011;494;48.744;10.106;2022-12-11T10:43:50;22.00;;;9.30;;
1010;SDS011;494;48.744;10.106;2022-12-11T10:46:21;20.45;;;8.95;;
1010;SDS011;494;48.744;10.106;2022-12-11T10:48:54;20.17;;;9.55;;
1010;SDS011;494;48.744;10.106;2022-12-11T10:51:33;20.52;;;8.93;;
1010;SDS011;494;48.744;10.106;2022-12-11T10:54:04;18.90;;;8.25;;
1010;SDS011;494;48.744;10.106;2022-12-11T10:56:44;21.15;;;9.20;;
1010;SDS011;494;48.744;10.106;2022-12-11T10:59:17;18.05;;;8.60;;
1010;SDS011;494;48.744;10.106;2022-12-11T11:01:55;18.95;;;8.95;;
1010;SDS011;494;48.744;10.106;2022-12-11T11:04:26;17.75;;;7.88;;
1010;SDS011;494;48.744;10.106;2022-12-11T11:07:02;20.10;;;9.43;;
1010;SDS011;494;48.744;10.106;2022-12-11T11:09:39;19.13;;;8.50;;
1010;SDS011;494;48.744;10.106;2022-12-11T11:12:19;22.27;;;9.20;;
1010;SDS011;494;48.744;10.106;2022-12-11T11:14:58;20.85;;;9.10;;
1010;SDS011;494;48.744;10.106;2022-12-11T11:17:29;20.15;;;9.15;;
1010;SDS011;494;48.744;10.106;2022-12-11T11:20:05;22.25;;;8.93;;
1010;SDS011;494;48.744;10.106;2022-12-11T11:22:45;19.60;;;9.55;;
1010;SDS011;494;48.744;10.106;2022-12-11T11:25:18;21.45;;;9.45;;
1010;SDS011;494;48.744;10.106;2022-12-11T11:27:54;21.83;;;10.43;;
1010;SDS011;494;48.744;10.106;2022-12-11T11:30:27;21.60;;;10.45;;
1010;SDS011;494;48.744;10.106;2022-12-11T11:33:01;23.33;;;10.95;;
1010;SDS011;494;48.744;10.106;2022-12-11T11:35:37;23.10;;;11.27;;
1010;SDS011;494;48.744;10.106;2022-12-11T11:38:14;24.42;;;10.90;;
1010;SDS011;494;48.744;10.106;2022-12-11T11:40:47;26.30;;;10.95;;
1010;SDS011;494;48.744;10.106;2022-12-11T11:43:34;25.92;;;11.25;;
1010;SDS011;494;48.744;10.106;2022-12-11T11:46:11;26.42;;;12.48;;
1010;SDS011;494;48.744;10.106;2022-12-11T11:48:48;28.67;;;13.55;;
1010;SDS011;494;48.744;10.106;2022-12-11T11:51:26;26.35;;;12.15;;
1010;SDS011;494;48.744;10.106;2022-12-11T11:54:07;25.42;;;11.32;;
1010;SDS011;494;48.744;10.106;2022-12-11T11:56:49;28.75;;;13.30;;
1010;SDS011;494;48.744;10.106;2022-12-11T11:59:23;23.05;;;10.73;;
1010;SDS011;494;48.744;10.106;2022-12-11T12:01:57;25.27;;;10.95;;
1010;SDS011;494;48.744;10.106;2022-12-11T12:04:26;24.42;;;11.77;;
1010;SDS011;494;48.744;10.106;2022-12-11T12:07:06;23.65;;;11.13;;
1010;SDS011;494;48.744;10.106;2022-12-11T12:09:57;20.58;;;9.77;;
1010;SDS011;494;48.744;10.106;2022-12-11T12:12:42;22.05;;;11.40;;
1010;SDS011;494;48.744;10.106;2022-12-11T12:15:21;22.40;;;10.02;;
1010;SDS011;494;48.744;10.106;2022-12-11T12:18:02;20.80;;;9.90;;
1010;SDS011;494;48.744;10.106;2022-12-11T12:20:45;22.65;;;9.55;;
1010;SDS011;494;48.744;10.106;2022-12-11T12:23:24;21.45;;;9.35;;
1010;SDS011;494;48.744;10.106;2022-12-11T12:26:13;21.05;;;9.68;;
1010;SDS011;494;48.744;10.106;2022-12-11T12:28:55;19.00;;;8.30;;
1010;SDS011;494;48.744;10.106;2022-12-11T12:31:44;23.75;;;10.40;;
1010;SDS011;494;48.744;10.106;2022-12-11T12:34:40;18.73;;;8.30;;
1010;SDS011;494;48.744;10.106;2022-12-11T12:37:26;21.33;;;9.45;;
1010;SDS011;494;48.744;10.106;2022-12-11T12:40:17;21.48;;;8.75;;
1010;SDS011;494;48.744;10.106;2022-12-11T12:43:02;19.50;;;9.15;;
1010;SDS011;494;48.744;10.106;2022-12-11T12:46:01;26.67;;;10.40;;
1010;SDS011;494;48.744;10.106;2022-12-11T12:48:42;18.45;;;9.60;;
1010;SDS011;494;48.744;10.106;2022-12-11T12:51:12;20.42;;;8.38;;
1010;SDS011;494;48.744;10.106;2022-12-11T12:53:45;19.63;;;9.05;;
1010;SDS011;494;48.744;10.106;2022-12-11T12:56:19;17.35;;;7.75;;
1010;SDS011;494;48.744;10.106;2022-12-11T12:58:50;17.30;;;7.47;;
1010;SDS011;494;48.744;10.106;2022-12-11T13:01:19;15.20;;;7.22;;
1010;SDS011;494;48.744;10.106;2022-12-11T13:03:53;21.55;;;9.38;;
1010;SDS011;494;48.744;10.106;2022-12-11T13:06:32;17.35;;;7.68;;
1010;SDS011;494;48.744;10.106;2022-12-11T13:09:14;20.90;;;10.18;;
1010;SDS011;494;48.744;10.106;2022-12-11T13:11:46;20.33;;;8.82;;
1010;SDS011;494;48.744;10.106;2022-12-11T13:14:23;17.65;;;8.88;;
1010;SDS011;494;48.744;10.106;2022-12-11T13:17:04;17.90;;;8.63;;
1010;SDS011;494;48.744;10.106;2022-12-11T13:20:09;20.58;;;9.45;;
1010;SDS011;494;48.744;10.106;2022-12-11T13:22:47;22.08;;;9.85;;
1010;SDS011;494;48.744;10.106;2022-12-11T13:25:49;18.85;;;9.43;;
1010;SDS011;494;48.744;10.106;2022-12-11T13:28:25;19.75;;;9.57;;
1010;SDS011;494;48.744;10.106;2022-12-11T13:34:06;17.35;;;8.07;;
1010;SDS011;494;48.744;10.106;2022-12-11T13:36:47;22.07;;;9.23;;
1010;SDS011;494;48.744;10.106;2022-12-11T13:39:19;17.55;;;8.20;;
1010;SDS011;494;48.744;10.106;2022-12-11T13:41:53;20.27;;;9.63;;
1010;SDS011;494;48.744;10.106;2022-12-11T13:44:27;18.80;;;9.02;;
1010;SDS011;494;48.744;10.106;2022-12-11T13:47:06;19.93;;;8.97;;
1010;SDS011;494;48.744;10.106;2022-12-11T13:49:41;18.13;;;8.20;;
1010;SDS011;494;48.744;10.106;2022-12-11T13:52:15;18.80;;;9.10;;
1010;SDS011;494;48.744;10.106;2022-12-11T13:54:47;22.50;;;9.68;;
1010;SDS011;494;48.744;10.106;2022-12-11T13:57:19;18.20;;;9.18;;
1010;SDS011;494;48.744;10.106;2022-12-11T13:59:52;19.20;;;9.68;;
1010;SDS011;494;48.744;10.106;2022-12-11T14:02:26;25.33;;;12.77;;
1010;SDS011;494;48.744;10.106;2022-12-11T14:05:01;22.83;;;10.82;;
1010;SDS011;494;48.744;10.106;2022-12-11T14:07:35;18.52;;;8.95;;
1010;SDS011;494;48.744;10.106;2022-12-11T14:10:08;21.23;;;9.30;;
1010;SDS011;494;48.744;10.106;2022-12-11T14:12:45;20.23;;;9.68;;
1010;SDS011;494;48.744;10.106;2022-12-11T14:15:20;19.27;;;10.45;;
1010;SDS011;494;48.744;10.106;2022-12-11T14:17:51;21.73;;;10.50;;
1010;SDS011;494;48.744;10.106;2022-12-11T14:20:22;25.23;;;11.95;;
1010;SDS011;494;48.744;10.106;2022-12-11T14:23:02;23.27;;;10.65;;
1010;SDS011;494;48.744;10.106;2022-12-11T14:25:33;21.75;;;9.60;;
1010;SDS011;494;48.744;10.106;2022-12-11T14:28:01;21.70;;;10.00;;
1010;SDS011;494;48.744;10.106;2022-12-11T14:30:31;21.67;;;9.88;;
1010;SDS011;494;48.744;10.106;2022-12-11T14:33:15;22.23;;;9.90;;
1010;SDS011;494;48.744;10.106;2022-12-11T14:35:48;23.40;;;10.50;;
1010;SDS011;494;48.744;10.106;2022-12-11T14:38:21;23.05;;;11.10;;
1010;SDS011;494;48.744;10.106;2022-12-11T14:40:57;25.65;;;11.52;;
1010;SDS011;494;48.744;10.106;2022-12-11T14:43:34;25.45;;;11.57;;
1010;SDS011;494;48.744;10.106;2022-12-11T14:46:14;23.98;;;10.77;;
1010;SDS011;494;48.744;10.106;2022-12-11T14:48:53;27.30;;;11.63;;
1010;SDS011;494;48.744;10.106;2022-12-11T14:51:28;22.00;;;10.70;;
1010;SDS011;494;48.744;10.106;2022-12-11T14:54:02;27.92;;;11.63;;
1010;SDS011;494;48.744;10.106;2022-12-11T14:56:34;22.73;;;11.18;;
1010;SDS011;494;48.744;10.106;2022-12-11T14:59:04;22.83;;;11.73;;
1010;SDS011;494;48.744;10.106;2022-12-11T15:01:45;29.38;;;12.43;;
1010;SDS011;494;48.744;10.106;2022-12-11T15:04:28;25.67;;;11.80;;
1010;SDS011;494;48.744;10.106;2022-12-11T15:06:59;27.35;;;12.45;;
1010;SDS011;494;48.744;10.106;2022-12-11T15:09:28;31.60;;;14.52;;
1010;SDS011;494;48.744;10.106;2022-12-11T15:12:07;31.05;;;14.70;;
1010;SDS011;494;48.744;10.106;2022-12-11T15:14:41;31.38;;;14.80;;
1010;SDS011;494;48.744;10.106;2022-12-11T15:17:16;27.17;;;13.65;;
1010;SDS011;494;48.744;10.106;2022-12-11T15:19:49;34.58;;;14.98;;
1010;SDS011;494;48.744;10.106;2022-12-11T15:22:21;29.38;;;13.27;;
1010;SDS011;494;48.744;10.106;2022-12-11T15:25:00;28.15;;;14.10;;
1010;SDS011;494;48.744;10.106;2022-12-11T15:27:31;27.17;;;13.70;;
1010;SDS011;494;48.744;10.106;2022-12-11T15:30:13;34.67;;;15.07;;
1010;SDS011;494;48.744;10.106;2022-12-11T15:33:00;30.88;;;15.77;;
1010;SDS011;494;48.744;10.106;2022-12-11T15:35:56;32.85;;;16.55;;
1010;SDS011;494;48.744;10.106;2022-12-11T15:38:32;36.88;;;17.92;;
1010;SDS011;494;48.744;10.106;2022-12-11T15:41:05;40.15;;;20.27;;
1010;SDS011;494;48.744;10.106;2022-12-11T15:43:41;35.80;;;17.58;;
1010;SDS011;494;48.744;10.106;2022-12-11T15:46:12;35.13;;;18.48;;
1010;SDS011;494;48.744;10.106;2022-12-11T15:48:42;31.52;;;15.55;;
1010;SDS011;494;48.744;10.106;2022-12-11T15:51:12;32.42;;;16.00;;
1010;SDS011;494;48.744;10.106;2022-12-11T15:53:41;31.35;;;15.48;;
1010;SDS011;494;48.744;10.106;2022-12-11T16:00:55;30.40;;;14.15;;
1010;SDS011;494;48.744;10.106;2022-12-11T16:03:30;31.75;;;14.75;;
1010;SDS011;494;48.744;10.106;2022-12-11T16:06:08;32.35;;;16.00;;
1010;SDS011;494;48.744;10.106;2022-12-11T16:08:44;36.47;;;16.88;;
1010;SDS011;494;48.744;10.106;2022-12-11T16:11:13;33.67;;;15.30;;